Time,TemperatureF,DewpointF,PressureIn,WindDirection,WindDirectionDegrees,WindSpeedMPH,WindSpeedGustMPH,Humidity,HourlyPrecipIn,Conditions,Clouds,dailyrainin,SoftwareType,DateUTC
2013-02-23 00:10:00,36.4,36.0,30.14,North,352,3.0,6.0,97,0.02,,,0.00,weatherlink.com 1.10,2013-02-23 05:10:00,
2013-02-23 00:25:00,36.5,36.0,30.10,East,79,1.0,3.0,97,0.01,,,0.00,weatherlink.com 1.10,2013-02-23 05:25:00,
2013-02-23 00:40:00,36.6,36.0,30.10,ENE,78,1.0,6.0,98,0.01,,,0.00,weatherlink.com 1.10,2013-02-23 05:40:00,
2013-02-23 00:55:00,36.6,36.0,30.10,North,354,0.0,5.0,98,0.01,,,0.01,weatherlink.com 1.10,2013-02-23 05:55:00,
2013-02-23 01:10:00,36.7,36.0,30.09,North,351,2.0,4.0,98,0.01,,,0.01,weatherlink.com 1.10,2013-02-23 06:10:00,
2013-02-23 01:26:00,36.7,36.0,30.09,ENE,65,0.0,3.0,98,0.01,,,0.01,weatherlink.com 1.10,2013-02-23 06:26:00,
2013-02-23 01:40:00,36.8,36.0,30.08,NNW,336,4.0,4.0,98,0.01,,,0.01,weatherlink.com 1.10,2013-02-23 06:40:00,
2013-02-23 01:55:00,36.8,36.0,30.08,NNW,338,0.0,4.0,98,0.00,,,0.01,weatherlink.com 1.10,2013-02-23 06:55:00,
2013-02-23 02:10:00,36.8,36.0,30.07,NNE,16,2.0,4.0,98,0.00,,,0.01,weatherlink.com 1.10,2013-02-23 07:10:00,
2013-02-23 02:26:00,36.7,36.0,30.06,NNW,338,3.0,5.0,98,0.00,,,0.01,weatherlink.com 1.10,2013-02-23 07:26:00,
2013-02-23 02:40:00,36.7,36.0,30.07,NNW,336,3.0,7.0,98,0.00,,,0.01,weatherlink.com 1.10,2013-02-23 07:40:00,
2013-02-23 02:55:00,36.6,36.0,30.06,WNW,300,0.0,7.0,98,0.00,,,0.01,weatherlink.com 1.10,2013-02-23 07:55:00,
2013-02-23 03:10:00,36.5,36.0,30.05,NNE,12,7.0,9.0,98,0.01,,,0.02,weatherlink.com 1.10,2013-02-23 08:10:00,
2013-02-23 03:25:00,36.5,36.0,30.04,NNE,23,4.0,9.0,98,0.01,,,0.02,weatherlink.com 1.10,2013-02-23 08:25:00,
2013-02-23 03:41:00,36.6,36.0,30.03,NNW,344,1.0,7.0,98,0.02,,,0.03,weatherlink.com 1.10,2013-02-23 08:41:00,
2013-02-23 03:56:00,36.5,36.0,30.02,North,356,1.0,8.0,98,0.02,,,0.03,weatherlink.com 1.10,2013-02-23 08:56:00,
2013-02-23 04:11:00,36.6,36.0,30.01,NNE,31,4.0,6.0,98,0.01,,,0.03,weatherlink.com 1.10,2013-02-23 09:11:00,
2013-02-23 04:26:00,36.6,36.0,30.01,NNE,33,6.0,8.0,98,0.01,,,0.03,weatherlink.com 1.10,2013-02-23 09:26:00,
2013-02-23 04:41:00,36.6,36.0,30.00,NNW,346,3.0,6.0,98,0.00,,,0.03,weatherlink.com 1.10,2013-02-23 09:41:00,
2013-02-23 04:56:00,36.7,36.0,30.00,NNE,27,2.0,3.0,98,0.00,,,0.03,weatherlink.com 1.10,2013-02-23 09:56:00,
2013-02-23 05:11:00,36.7,36.0,30.01,NW,311,0.0,4.0,98,0.01,,,0.04,weatherlink.com 1.10,2013-02-23 10:11:00,
2013-02-23 05:26:00,36.8,36.0,30.00,NNE,16,2.0,5.0,98,0.11,,,0.14,weatherlink.com 1.10,2013-02-23 10:26:00,
2013-02-23 05:41:00,36.8,36.0,30.02,NNW,327,0.0,8.0,98,0.19,,,0.22,weatherlink.com 1.10,2013-02-23 10:41:00,
2013-02-23 05:56:00,36.8,36.0,30.02,NNE,25,3.0,8.0,98,0.21,,,0.24,weatherlink.com 1.10,2013-02-23 10:56:00,
2013-02-23 06:11:00,36.8,36.0,30.02,North,358,4.0,4.0,98,0.20,,,0.24,weatherlink.com 1.10,2013-02-23 11:11:00,
2013-02-23 06:26:00,36.9,36.0,30.02,NNW,332,1.0,4.0,98,0.10,,,0.24,weatherlink.com 1.10,2013-02-23 11:26:00,
2013-02-23 06:41:00,37.1,37.0,30.03,North,4,2.0,5.0,98,0.03,,,0.25,weatherlink.com 1.10,2013-02-23 11:41:00,
2013-02-23 06:56:00,37.2,37.0,30.03,NNE,16,0.0,4.0,98,0.01,,,0.25,weatherlink.com 1.10,2013-02-23 11:56:00,
2013-02-23 07:11:00,37.3,37.0,30.02,North,6,2.0,5.0,98,0.02,,,0.26,weatherlink.com 1.10,2013-02-23 12:11:00,
2013-02-23 07:26:00,37.5,37.0,30.02,NNW,346,3.0,4.0,98,0.04,,,0.28,weatherlink.com 1.10,2013-02-23 12:26:00,
2013-02-23 07:41:00,37.7,37.0,30.01,ENE,63,1.0,6.0,98,0.04,,,0.29,weatherlink.com 1.10,2013-02-23 12:41:00,
2013-02-23 07:56:00,37.7,37.0,30.01,NNE,28,0.0,4.0,98,0.06,,,0.31,weatherlink.com 1.10,2013-02-23 12:56:00,
2013-02-23 08:11:00,37.8,37.0,29.97,NE,34,3.0,7.0,98,0.09,,,0.35,weatherlink.com 1.10,2013-02-23 13:11:00,
2013-02-23 08:26:00,38.0,38.0,29.99,ESE,103,0.0,2.0,98,0.10,,,0.38,weatherlink.com 1.10,2013-02-23 13:26:00,
2013-02-23 08:41:00,38.2,38.0,29.98,ESE,105,0.0,3.0,98,0.13,,,0.43,weatherlink.com 1.10,2013-02-23 13:41:00,
2013-02-23 08:56:00,38.4,38.0,29.96,ENE,78,2.0,4.0,98,0.14,,,0.45,weatherlink.com 1.10,2013-02-23 13:56:00,
2013-02-23 09:11:00,38.7,38.0,29.98,ENE,77,0.0,2.0,98,0.12,,,0.47,weatherlink.com 1.10,2013-02-23 14:11:00,
2013-02-23 09:26:00,38.9,38.0,29.98,NE,43,0.0,1.0,98,0.09,,,0.48,weatherlink.com 1.10,2013-02-23 14:26:00,
2013-02-23 09:41:00,39.0,39.0,29.98,NE,36,0.0,1.0,98,0.09,,,0.52,weatherlink.com 1.10,2013-02-23 14:41:00,
2013-02-23 09:56:00,39.2,39.0,29.98,West,276,0.0,1.0,98,0.10,,,0.55,weatherlink.com 1.10,2013-02-23 14:56:00,
2013-02-23 10:11:00,39.4,39.0,29.96,NNE,19,0.0,1.0,98,0.13,,,0.60,weatherlink.com 1.10,2013-02-23 15:11:00,
2013-02-23 10:26:00,39.6,39.0,29.96,WNW,300,0.0,4.0,98,0.16,,,0.64,weatherlink.com 1.10,2013-02-23 15:26:00,
2013-02-23 10:41:00,39.9,39.0,29.96,SW,231,0.0,2.0,98,0.12,,,0.64,weatherlink.com 1.10,2013-02-23 15:41:00,
2013-02-23 10:56:00,39.7,39.0,29.95,WNW,302,0.0,5.0,98,0.10,,,0.65,weatherlink.com 1.10,2013-02-23 15:56:00,
2013-02-23 11:11:00,39.9,39.0,29.95,NNE,19,0.0,4.0,98,0.05,,,0.66,weatherlink.com 1.10,2013-02-23 16:11:00,
2013-02-23 11:26:00,40.1,40.0,29.95,NNW,330,3.0,5.0,98,0.02,,,0.66,weatherlink.com 1.10,2013-02-23 16:26:00,
2013-02-23 11:41:00,40.2,40.0,29.95,WNW,302,0.0,4.0,98,0.03,,,0.67,weatherlink.com 1.10,2013-02-23 16:41:00,
2013-02-23 11:56:00,40.5,40.0,29.91,NNE,22,0.0,3.0,98,0.04,,,0.69,weatherlink.com 1.10,2013-02-23 16:56:00,
2013-02-23 12:11:00,40.8,40.0,29.92,NNW,330,0.0,3.0,98,0.04,,,0.70,weatherlink.com 1.10,2013-02-23 17:11:00,
2013-02-23 12:26:00,40.9,40.0,29.92,West,273,0.0,4.0,98,0.05,,,0.71,weatherlink.com 1.10,2013-02-23 17:26:00,
2013-02-23 12:41:00,40.9,40.0,29.93,WNW,289,0.0,1.0,98,0.04,,,0.71,weatherlink.com 1.10,2013-02-23 17:41:00,
2013-02-23 12:56:00,41.2,41.0,29.91,WNW,300,0.0,1.0,98,0.04,,,0.73,weatherlink.com 1.10,2013-02-23 17:56:00,
2013-02-23 13:11:00,41.5,41.0,29.91,NNW,335,2.0,3.0,98,0.05,,,0.75,weatherlink.com 1.10,2013-02-23 18:11:00,
2013-02-23 13:26:00,41.8,41.0,29.90,West,276,0.0,3.0,98,0.04,,,0.75,weatherlink.com 1.10,2013-02-23 18:26:00,
2013-02-23 13:41:00,42.2,42.0,29.90,NW,321,1.0,2.0,98,0.04,,,0.75,weatherlink.com 1.10,2013-02-23 18:41:00,
2013-02-23 13:57:00,42.4,42.0,29.90,NW,316,1.0,7.0,98,0.03,,,0.76,weatherlink.com 1.10,2013-02-23 18:57:00,
2013-02-23 14:12:00,42.3,42.0,29.90,WNW,283,1.0,6.0,98,0.01,,,0.76,weatherlink.com 1.10,2013-02-23 19:12:00,
2013-02-23 14:27:00,42.3,42.0,29.89,West,269,4.0,8.0,98,0.02,,,0.77,weatherlink.com 1.10,2013-02-23 19:27:00,
2013-02-23 14:42:00,42.3,42.0,29.89,NW,320,0.0,5.0,97,0.02,,,0.77,weatherlink.com 1.10,2013-02-23 19:42:00,
2013-02-23 14:57:00,42.2,41.0,29.90,West,273,1.0,5.0,97,0.01,,,0.77,weatherlink.com 1.10,2013-02-23 19:57:00,
2013-02-23 15:12:00,42.4,42.0,29.87,West,264,0.0,1.0,98,0.01,,,0.77,weatherlink.com 1.10,2013-02-23 20:12:00,
2013-02-23 15:27:00,42.7,42.0,29.87,NNW,342,0.0,1.0,98,0.00,,,0.77,weatherlink.com 1.10,2013-02-23 20:27:00,
2013-02-23 15:42:00,42.9,42.0,29.86,NW,306,0.0,2.0,97,0.00,,,0.77,weatherlink.com 1.10,2013-02-23 20:42:00,
2013-02-23 15:57:00,43.0,42.0,29.86,NNW,340,1.0,2.0,97,0.00,,,0.77,weatherlink.com 1.10,2013-02-23 20:57:00,
2013-02-23 16:12:00,42.8,42.0,29.85,North,1,0.0,3.0,97,0.00,,,0.77,weatherlink.com 1.10,2013-02-23 21:12:00,
2013-02-23 16:27:00,42.9,42.0,29.86,NNW,342,1.0,5.0,97,0.00,,,0.77,weatherlink.com 1.10,2013-02-23 21:27:00,
2013-02-23 16:42:00,43.0,42.0,29.87,NW,318,2.0,6.0,97,0.00,,,0.77,weatherlink.com 1.10,2013-02-23 21:42:00,
2013-02-23 16:57:00,43.0,42.0,29.87,West,280,0.0,4.0,97,0.00,,,0.77,weatherlink.com 1.10,2013-02-23 21:57:00,
2013-02-23 17:12:00,43.1,42.0,29.87,WNW,300,1.0,2.0,97,0.00,,,0.77,weatherlink.com 1.10,2013-02-23 22:12:00,
2013-02-23 17:27:00,43.1,42.0,29.87,NW,317,0.0,3.0,97,0.00,,,0.77,weatherlink.com 1.10,2013-02-23 22:27:00,
2013-02-23 17:42:00,43.1,43.0,29.87,NW,322,0.0,2.0,98,0.00,,,0.77,weatherlink.com 1.10,2013-02-23 22:42:00,
2013-02-23 17:57:00,43.2,43.0,29.86,North,6,0.0,3.0,98,0.00,,,0.77,weatherlink.com 1.10,2013-02-23 22:57:00,
2013-02-23 18:12:00,43.2,43.0,29.85,NNW,338,0.0,2.0,98,0.00,,,0.77,weatherlink.com 1.10,2013-02-23 23:12:00,
2013-02-23 18:27:00,43.1,43.0,29.84,NNW,327,0.0,3.0,98,0.00,,,0.77,weatherlink.com 1.10,2013-02-23 23:27:00,
2013-02-23 18:42:00,43.1,43.0,29.83,North,360,0.0,0.0,98,0.00,,,0.77,weatherlink.com 1.10,2013-02-23 23:42:00,
2013-02-23 18:57:00,43.1,43.0,29.84,North,360,0.0,0.0,98,0.00,,,0.77,weatherlink.com 1.10,2013-02-23 23:57:00,
2013-02-23 19:12:00,43.1,43.0,29.84,North,11,0.0,1.0,98,0.00,,,0.77,weatherlink.com 1.10,2013-02-24 00:12:00,
2013-02-23 19:27:00,43.1,43.0,29.83,NE,39,0.0,1.0,98,0.00,,,0.77,weatherlink.com 1.10,2013-02-24 00:27:00,
2013-02-23 19:42:00,43.2,43.0,29.84,NNE,22,0.0,1.0,98,0.00,,,0.77,weatherlink.com 1.10,2013-02-24 00:42:00,
2013-02-23 19:57:00,43.1,43.0,29.84,North,1,0.0,0.0,98,0.00,,,0.77,weatherlink.com 1.10,2013-02-24 00:57:00,
2013-02-23 20:12:00,43.1,43.0,29.85,North,1,0.0,0.0,98,0.00,,,0.77,weatherlink.com 1.10,2013-02-24 01:12:00,
2013-02-23 20:27:00,43.2,43.0,29.85,North,1,0.0,0.0,98,0.00,,,0.77,weatherlink.com 1.10,2013-02-24 01:27:00,
2013-02-23 20:42:00,43.3,43.0,29.86,North,1,0.0,0.0,98,0.00,,,0.77,weatherlink.com 1.10,2013-02-24 01:42:00,
2013-02-23 20:57:00,43.3,43.0,29.86,North,356,0.0,0.0,98,0.00,,,0.77,weatherlink.com 1.10,2013-02-24 01:57:00,
2013-02-23 21:27:00,43.4,43.0,29.86,ESE,116,0.0,0.0,98,0.00,,,0.77,weatherlink.com 1.10,2013-02-24 02:27:00,
2013-02-23 21:42:00,43.5,43.0,29.86,West,264,0.0,0.0,98,0.00,,,0.77,weatherlink.com 1.10,2013-02-24 02:42:00,
2013-02-23 21:57:00,43.5,43.0,29.87,West,259,0.0,1.0,98,0.00,,,0.77,weatherlink.com 1.10,2013-02-24 02:57:00,
2013-02-23 22:12:00,43.6,43.0,29.86,WNW,288,0.0,1.0,98,0.00,,,0.77,weatherlink.com 1.10,2013-02-24 03:12:00,
2013-02-23 22:27:00,43.5,43.0,29.84,WNW,300,0.0,0.0,98,0.00,,,0.77,weatherlink.com 1.10,2013-02-24 03:27:00,
2013-02-23 22:42:00,43.5,43.0,29.84,WNW,300,0.0,0.0,98,0.00,,,0.77,weatherlink.com 1.10,2013-02-24 03:42:00,
2013-02-23 22:57:00,43.6,43.0,29.83,WNW,300,0.0,0.0,98,0.00,,,0.77,weatherlink.com 1.10,2013-02-24 03:57:00,
2013-02-23 23:12:00,43.5,43.0,29.82,East,89,0.0,1.0,98,0.00,,,0.77,weatherlink.com 1.10,2013-02-24 04:12:00,
2013-02-23 23:27:00,43.5,43.0,29.81,East,94,0.0,0.0,98,0.00,,,0.77,weatherlink.com 1.10,2013-02-24 04:27:00,
2013-02-23 23:42:00,43.6,43.0,29.82,WSW,255,0.0,1.0,98,0.00,,,0.77,weatherlink.com 1.10,2013-02-24 04:42:00,
2013-02-23 23:57:00,43.6,43.0,29.81,SE,139,0.0,1.0,98,0.00,,,0.77,weatherlink.com 1.10,2013-02-24 04:57:00,